sensor_id;sensor_type;location;lat;lon;timestamp;pressure;altitude;pressure_sealevel;temperature;humidity
5455;BME280;2750;49.050;9.250;2023-03-01T00:02:16;99653.41;;;1.43;79.13
5455;BME280;2750;49.050;9.250;2023-03-01T00:07:17;99651.72;;;1.47;78.87
5455;BME280;2750;49.050;9.250;2023-03-01T00:12:19;99659.28;;;1.30;78.80
5455;BME280;2750;49.050;9.250;2023-03-01T00:17:22;99651.75;;;1.55;78.42
5455;BME280;2750;49.050;9.250;2023-03-01T00:22:24;99655.22;;;1.72;78.51
5455;BME280;2750;49.050;9.250;2023-03-01T00:27:25;99661.00;;;1.31;79.07
5455;BME280;2750;49.050;9.250;2023-03-01T00:32:28;99655.84;;;1.21;79.91
5455;BME280;2750;49.050;9.250;2023-03-01T00:37:29;99648.28;;;1.47;79.05
5455;BME280;2750;49.050;9.250;2023-03-01T00:42:31;99655.75;;;1.01;80.79
5455;BME280;2750;49.050;9.250;2023-03-01T00:47:34;99672.03;;;1.18;79.84
5455;BME280;2750;49.050;9.250;2023-03-01T00:52:35;99669.56;;;1.33;79.33
5455;BME280;2750;49.050;9.250;2023-03-01T00:57:37;99665.91;;;0.90;81.09
5455;BME280;2750;49.050;9.250;2023-03-01T01:02:40;99658.25;;;0.90;81.25
5455;BME280;2750;49.050;9.250;2023-03-01T01:07:42;99653.03;;;0.75;81.37
5455;BME280;2750;49.050;9.250;2023-03-01T01:12:44;99658.09;;;0.69;82.21
5455;BME280;2750;49.050;9.250;2023-03-01T01:17:47;99658.06;;;0.63;82.90
5455;BME280;2750;49.050;9.250;2023-03-01T01:22:48;99651.34;;;0.73;81.40
5455;BME280;2750;49.050;9.250;2023-03-01T01:27:51;99653.97;;;0.88;80.89
5455;BME280;2750;49.050;9.250;2023-03-01T01:32:54;99633.38;;;0.65;81.36
5455;BME280;2750;49.050;9.250;2023-03-01T01:37:55;99629.94;;;0.59;83.21
5455;BME280;2750;49.050;9.250;2023-03-01T01:42:57;99616.22;;;0.41;83.50
5455;BME280;2750;49.050;9.250;2023-03-01T01:48:03;99616.31;;;0.55;82.72
5455;BME280;2750;49.050;9.250;2023-03-01T01:53:09;99616.44;;;0.78;82.07
5455;BME280;2750;49.050;9.250;2023-03-01T01:58:15;99610.53;;;0.82;81.29
5455;BME280;2750;49.050;9.250;2023-03-01T02:03:22;99603.06;;;1.27;79.90
5455;BME280;2750;49.050;9.250;2023-03-01T02:08:31;99595.44;;;1.33;80.19
5455;BME280;2750;49.050;9.250;2023-03-01T02:13:33;99579.16;;;1.07;79.72
5455;BME280;2750;49.050;9.250;2023-03-01T02:18:38;99584.22;;;1.01;81.13
5455;BME280;2750;49.050;9.250;2023-03-01T02:23:41;99581.84;;;1.50;79.20
5455;BME280;2750;49.050;9.250;2023-03-01T02:28:45;99575.84;;;1.29;79.66
5455;BME280;2750;49.050;9.250;2023-03-01T02:33:47;99569.56;;;0.62;81.21
5455;BME280;2750;49.050;9.250;2023-03-01T02:38:51;99561.81;;;0.47;82.07
5455;BME280;2750;49.050;9.250;2023-03-01T02:43:55;99555.00;;;0.44;82.24
5455;BME280;2750;49.050;9.250;2023-03-01T02:48:58;99550.00;;;0.66;82.31
5455;BME280;2750;49.050;9.250;2023-03-01T02:54:07;99543.94;;;0.45;81.72
5455;BME280;2750;49.050;9.250;2023-03-01T02:59:13;99544.00;;;0.53;83.18
5455;BME280;2750;49.050;9.250;2023-03-01T03:04:17;99546.44;;;0.39;82.99
5455;BME280;2750;49.050;9.250;2023-03-01T03:09:19;99544.81;;;0.51;82.63
5455;BME280;2750;49.050;9.250;2023-03-01T03:14:22;99537.94;;;0.37;83.11
5455;BME280;2750;49.050;9.250;2023-03-01T03:19:23;99537.91;;;0.36;83.07
5455;BME280;2750;49.050;9.250;2023-03-01T03:24:25;99536.28;;;0.45;82.55
5455;BME280;2750;49.050;9.250;2023-03-01T03:29:28;99535.44;;;0.48;82.47
5455;BME280;2750;49.050;9.250;2023-03-01T03:34:30;99520.94;;;0.41;82.78
5455;BME280;2750;49.050;9.250;2023-03-01T03:39:32;99519.34;;;0.57;82.29
5455;BME280;2750;49.050;9.250;2023-03-01T03:44:36;99515.88;;;0.45;82.79
5455;BME280;2750;49.050;9.250;2023-03-01T03:49:37;99507.31;;;0.37;82.40
5455;BME280;2750;49.050;9.250;2023-03-01T03:54:39;99505.59;;;0.33;83.13
5455;BME280;2750;49.050;9.250;2023-03-01T03:59:42;99505.41;;;0.06;84.33
5455;BME280;2750;49.050;9.250;2023-03-01T04:04:44;99496.94;;;0.07;84.73
5455;BME280;2750;49.050;9.250;2023-03-01T04:09:45;99504.66;;;0.18;84.26
5455;BME280;2750;49.050;9.250;2023-03-01T04:14:48;99489.22;;;-0.01;84.72
5455;BME280;2750;49.050;9.250;2023-03-01T04:19:50;99500.50;;;0.33;83.27
5455;BME280;2750;49.050;9.250;2023-03-01T04:24:51;99496.91;;;0.09;83.87
5455;BME280;2750;49.050;9.250;2023-03-01T04:29:54;99492.69;;;0.11;83.62
5455;BME280;2750;49.050;9.250;2023-03-01T04:34:56;99495.22;;;0.09;83.28
5455;BME280;2750;49.050;9.250;2023-03-01T04:40:00;99496.78;;;-0.13;85.23
5455;BME280;2750;49.050;9.250;2023-03-01T04:45:10;99500.06;;;-0.27;85.75
5455;BME280;2750;49.050;9.250;2023-03-01T04:50:15;99507.66;;;-0.33;86.02
5455;BME280;2750;49.050;9.250;2023-03-01T04:55:17;99498.25;;;-0.37;85.74
5455;BME280;2750;49.050;9.250;2023-03-01T05:00:21;99506.72;;;-0.41;86.50
5455;BME280;2750;49.050;9.250;2023-03-01T05:05:25;99503.34;;;-0.40;86.12
5455;BME280;2750;49.050;9.250;2023-03-01T05:10:29;99511.16;;;-0.21;85.01
5455;BME280;2750;49.050;9.250;2023-03-01T05:15:32;99512.00;;;-0.23;85.37
5455;BME280;2750;49.050;9.250;2023-03-01T05:20:34;99506.13;;;-0.13;84.96
5455;BME280;2750;49.050;9.250;2023-03-01T05:25:36;99501.94;;;-0.05;84.83
5455;BME280;2750;49.050;9.250;2023-03-01T05:30:41;99494.44;;;0.21;84.35
5455;BME280;2750;49.050;9.250;2023-03-01T05:35:44;99500.22;;;-0.06;84.96
5455;BME280;2750;49.050;9.250;2023-03-01T05:40:48;99494.91;;;-0.30;85.42
5455;BME280;2750;49.050;9.250;2023-03-01T05:45:51;99505.22;;;-0.21;84.71
5455;BME280;2750;49.050;9.250;2023-03-01T05:50:52;99500.69;;;-0.54;85.68
5455;BME280;2750;49.050;9.250;2023-03-01T05:55:54;99493.00;;;-0.56;85.72
5455;BME280;2750;49.050;9.250;2023-03-01T06:00:57;99499.81;;;-0.53;86.28
5455;BME280;2750;49.050;9.250;2023-03-01T06:05:58;99501.91;;;-0.10;84.38
5455;BME280;2750;49.050;9.250;2023-03-01T06:11:00;99507.59;;;-0.38;86.12
5455;BME280;2750;49.050;9.250;2023-03-01T06:16:05;99503.59;;;-0.07;84.72
5455;BME280;2750;49.050;9.250;2023-03-01T06:21:08;99500.50;;;0.36;83.45
5455;BME280;2750;49.050;9.250;2023-03-01T06:26:09;99496.34;;;0.52;82.62
5455;BME280;2750;49.050;9.250;2023-03-01T06:31:12;99492.25;;;0.96;80.88
5455;BME280;2750;49.050;9.250;2023-03-01T06:36:14;99492.34;;;1.22;80.72
5455;BME280;2750;49.050;9.250;2023-03-01T06:41:18;99491.53;;;1.73;78.88
5455;BME280;2750;49.050;9.250;2023-03-01T06:46:21;99487.28;;;1.48;78.99
5455;BME280;2750;49.050;9.250;2023-03-01T06:51:23;99487.25;;;1.42;79.39
5455;BME280;2750;49.050;9.250;2023-03-01T06:56:25;99492.31;;;1.16;79.12
5455;BME280;2750;49.050;9.250;2023-03-01T07:01:28;99497.28;;;0.71;81.04
5455;BME280;2750;49.050;9.250;2023-03-01T07:06:30;99484.41;;;0.51;81.42
5455;BME280;2750;49.050;9.250;2023-03-01T07:11:31;99485.22;;;0.42;82.82
5455;BME280;2750;49.050;9.250;2023-03-01T07:16:34;99483.44;;;0.28;82.48
5455;BME280;2750;49.050;9.250;2023-03-01T07:21:36;99481.06;;;0.63;82.00
5455;BME280;2750;49.050;9.250;2023-03-01T07:26:38;99472.53;;;0.59;81.19
5455;BME280;2750;49.050;9.250;2023-03-01T07:31:41;99470.03;;;0.67;82.48
5455;BME280;2750;49.050;9.250;2023-03-01T07:36:43;99473.50;;;0.87;81.37
5455;BME280;2750;49.050;9.250;2023-03-01T07:41:45;99473.53;;;0.93;81.52
5455;BME280;2750;49.050;9.250;2023-03-01T07:46:48;99470.16;;;0.99;81.61
5455;BME280;2750;49.050;9.250;2023-03-01T07:51:50;99455.63;;;0.96;81.02
5455;BME280;2750;49.050;9.250;2023-03-01T07:56:51;99448.06;;;1.28;79.95
5455;BME280;2750;49.050;9.250;2023-03-01T08:01:56;99447.19;;;1.24;79.87
5455;BME280;2750;49.050;9.250;2023-03-01T08:06:58;99437.84;;;1.41;79.34
5455;BME280;2750;49.050;9.250;2023-03-01T08:12:00;99434.44;;;1.82;78.96
5455;BME280;2750;49.050;9.250;2023-03-01T08:17:03;99431.00;;;1.81;78.67
5455;BME280;2750;49.050;9.250;2023-03-01T08:22:04;99430.03;;;2.40;77.12
5455;BME280;2750;49.050;9.250;2023-03-01T08:27:06;99427.34;;;2.72;76.21
5455;BME280;2750;49.050;9.250;2023-03-01T08:32:09;99425.47;;;3.01;75.15
5455;BME280;2750;49.050;9.250;2023-03-01T08:37:10;99423.56;;;3.30;74.75
5455;BME280;2750;49.050;9.250;2023-03-01T08:42:12;99410.53;;;3.58;72.95
5455;BME280;2750;49.050;9.250;2023-03-01T08:47:15;99419.03;;;4.45;71.91
5455;BME280;2750;49.050;9.250;2023-03-01T08:52:17;99421.41;;;3.84;72.25
5455;BME280;2750;49.050;9.250;2023-03-01T08:57:18;99405.06;;;3.94;72.38
5455;BME280;2750;49.050;9.250;2023-03-01T09:02:22;99404.81;;;4.18;70.62
5455;BME280;2750;49.050;9.250;2023-03-01T09:07:23;99404.97;;;4.06;70.73
5455;BME280;2750;49.050;9.250;2023-03-01T09:12:28;99404.22;;;3.92;70.56
5455;BME280;2750;49.050;9.250;2023-03-01T09:17:31;99400.72;;;4.72;70.16
5455;BME280;2750;49.050;9.250;2023-03-01T09:22:33;99389.13;;;4.43;70.07
5455;BME280;2750;49.050;9.250;2023-03-01T09:27:34;99384.25;;;4.87;69.13
5455;BME280;2750;49.050;9.250;2023-03-01T09:32:37;99366.34;;;4.82;68.42
5455;BME280;2750;49.050;9.250;2023-03-01T09:37:42;99358.75;;;5.30;67.26
5455;BME280;2750;49.050;9.250;2023-03-01T09:42:53;99361.66;;;5.07;68.15
5455;BME280;2750;49.050;9.250;2023-03-01T09:47:57;99364.78;;;5.27;66.90
5455;BME280;2750;49.050;9.250;2023-03-01T09:53:02;99334.03;;;5.70;66.67
5455;BME280;2750;49.050;9.250;2023-03-01T09:58:21;99346.94;;;5.69;65.81
5455;BME280;2750;49.050;9.250;2023-03-01T10:03:31;99338.28;;;5.73;65.94
5455;BME280;2750;49.050;9.250;2023-03-01T10:08:38;99324.47;;;6.21;65.68
5455;BME280;2750;49.050;9.250;2023-03-01T10:13:47;99311.03;;;6.49;64.87
5455;BME280;2750;49.050;9.250;2023-03-01T10:18:58;99319.50;;;6.54;63.77
5455;BME280;2750;49.050;9.250;2023-03-01T10:24:10;99306.44;;;6.21;65.37
5455;BME280;2750;49.050;9.250;2023-03-01T10:29:13;99296.66;;;6.37;65.02
5455;BME280;2750;49.050;9.250;2023-03-01T10:34:19;99296.47;;;6.85;64.41
5455;BME280;2750;49.050;9.250;2023-03-01T10:39:23;99280.16;;;6.84;64.18
5455;BME280;2750;49.050;9.250;2023-03-01T10:44:36;99283.00;;;6.35;66.00
5455;BME280;2750;49.050;9.250;2023-03-01T10:49:51;99264.50;;;7.26;64.28
5455;BME280;2750;49.050;9.250;2023-03-01T10:54:55;99275.06;;;7.16;64.20
5455;BME280;2750;49.050;9.250;2023-03-01T11:00:14;99252.44;;;7.28;64.12
5455;BME280;2750;49.050;9.250;2023-03-01T11:05:23;99256.28;;;6.38;64.67
5455;BME280;2750;49.050;9.250;2023-03-01T11:10:27;99253.78;;;6.73;65.20
5455;BME280;2750;49.050;9.250;2023-03-01T11:15:29;99237.38;;;7.09;64.03
5455;BME280;2750;49.050;9.250;2023-03-01T11:20:35;99230.38;;;7.14;62.36
5455;BME280;2750;49.050;9.250;2023-03-01T11:25:38;99221.19;;;7.04;63.41
5455;BME280;2750;49.050;9.250;2023-03-01T11:30:47;99218.25;;;7.50;62.23
5455;BME280;2750;49.050;9.250;2023-03-01T11:35:55;99221.59;;;7.54;63.87
5455;BME280;2750;49.050;9.250;2023-03-01T11:41:04;99209.53;;;7.54;63.05
5455;BME280;2750;49.050;9.250;2023-03-01T11:46:29;99192.88;;;7.66;63.72
5455;BME280;2750;49.050;9.250;2023-03-01T11:51:42;99195.06;;;7.49;63.21
5455;BME280;2750;49.050;9.250;2023-03-01T11:56:51;99186.09;;;7.62;62.54
5455;BME280;2750;49.050;9.250;2023-03-01T12:02:13;99169.56;;;7.67;62.91
5455;BME280;2750;49.050;9.250;2023-03-01T12:07:26;99166.19;;;7.95;62.55
5455;BME280;2750;49.050;9.250;2023-03-01T12:12:49;99155.81;;;7.96;62.70
5455;BME280;2750;49.050;9.250;2023-03-01T12:18:02;99126.41;;;8.00;62.83
5455;BME280;2750;49.050;9.250;2023-03-01T12:23:37;99119.53;;;8.27;62.31
5455;BME280;2750;49.050;9.250;2023-03-01T12:29:09;99117.56;;;8.07;61.46
5455;BME280;2750;49.050;9.250;2023-03-01T12:34:31;99105.44;;;8.09;62.16
5455;BME280;2750;49.050;9.250;2023-03-01T12:39:44;99107.50;;;7.98;62.19
5455;BME280;2750;49.050;9.250;2023-03-01T12:45:12;99094.06;;;8.43;61.45
5455;BME280;2750;49.050;9.250;2023-03-01T12:50:21;99091.34;;;9.20;59.98
5455;BME280;2750;49.050;9.250;2023-03-01T12:55:29;99093.84;;;8.49;60.70
5455;BME280;2750;49.050;9.250;2023-03-01T13:00:36;99079.00;;;8.80;61.23
5455;BME280;2750;49.050;9.250;2023-03-01T13:05:46;99062.09;;;8.70;61.45
5455;BME280;2750;49.050;9.250;2023-03-01T13:10:58;99061.53;;;8.36;61.60
5455;BME280;2750;49.050;9.250;2023-03-01T13:16:19;99062.47;;;8.84;61.04
5455;BME280;2750;49.050;9.250;2023-03-01T13:21:30;99053.09;;;8.31;62.61
5455;BME280;2750;49.050;9.250;2023-03-01T13:27:11;99050.59;;;8.54;61.88
5455;BME280;2750;49.050;9.250;2023-03-01T13:32:26;99048.38;;;8.68;61.86
5455;BME280;2750;49.050;9.250;2023-03-01T13:37:32;99056.50;;;8.82;61.33
5455;BME280;2750;49.050;9.250;2023-03-01T13:42:41;99039.13;;;9.09;61.54
5455;BME280;2750;49.050;9.250;2023-03-01T13:47:47;99033.22;;;9.05;60.97
5455;BME280;2750;49.050;9.250;2023-03-01T13:52:53;99037.13;;;9.17;61.22
5455;BME280;2750;49.050;9.250;2023-03-01T13:58:00;99046.38;;;9.69;59.62
5455;BME280;2750;49.050;9.250;2023-03-01T14:03:05;99041.91;;;9.04;60.53
5455;BME280;2750;49.050;9.250;2023-03-01T14:08:21;99040.59;;;8.93;60.93
5455;BME280;2750;49.050;9.250;2023-03-01T14:13:33;99033.78;;;8.90;61.13
5455;BME280;2750;49.050;9.250;2023-03-01T14:18:44;99030.31;;;8.67;60.79
5455;BME280;2750;49.050;9.250;2023-03-01T14:23:49;99022.94;;;8.81;60.27
5455;BME280;2750;49.050;9.250;2023-03-01T14:28:52;99036.16;;;8.96;60.98
5455;BME280;2750;49.050;9.250;2023-03-01T14:33:55;99027.28;;;9.03;60.38
5455;BME280;2750;49.050;9.250;2023-03-01T14:38:57;99034.31;;;8.75;60.55
5455;BME280;2750;49.050;9.250;2023-03-01T14:44:11;99043.34;;;8.63;60.91
5455;BME280;2750;49.050;9.250;2023-03-01T14:49:15;99044.13;;;8.90;60.77
5455;BME280;2750;49.050;9.250;2023-03-01T14:54:21;99053.81;;;9.55;58.93
5455;BME280;2750;49.050;9.250;2023-03-01T14:59:26;99047.25;;;9.23;58.31
5455;BME280;2750;49.050;9.250;2023-03-01T15:04:28;99051.03;;;9.15;59.82
5455;BME280;2750;49.050;9.250;2023-03-01T15:09:32;99051.44;;;9.72;58.26
5455;BME280;2750;49.050;9.250;2023-03-01T15:14:41;99048.00;;;9.27;58.85
5455;BME280;2750;49.050;9.250;2023-03-01T15:19:45;99051.88;;;9.38;59.42
5455;BME280;2750;49.050;9.250;2023-03-01T15:24:48;99052.50;;;9.67;58.54
5455;BME280;2750;49.050;9.250;2023-03-01T15:29:55;99051.50;;;9.92;58.21
5455;BME280;2750;49.050;9.250;2023-03-01T15:35:00;99044.66;;;10.12;57.93
5455;BME280;2750;49.050;9.250;2023-03-01T15:40:18;99043.56;;;9.74;57.90
5455;BME280;2750;49.050;9.250;2023-03-01T15:45:24;99036.63;;;9.52;59.60
5455;BME280;2750;49.050;9.250;2023-03-01T15:50:29;99051.03;;;9.38;59.51
5455;BME280;2750;49.050;9.250;2023-03-01T15:55:32;99040.53;;;9.41;58.94
5455;BME280;2750;49.050;9.250;2023-03-01T16:00:35;99046.41;;;9.23;58.71
5455;BME280;2750;49.050;9.250;2023-03-01T16:05:38;99037.28;;;9.12;60.20
5455;BME280;2750;49.050;9.250;2023-03-01T16:10:41;99037.50;;;9.06;59.45
5455;BME280;2750;49.050;9.250;2023-03-01T16:15:45;99045.94;;;8.88;60.47
5455;BME280;2750;49.050;9.250;2023-03-01T16:20:46;99018.81;;;8.98;60.39
5455;BME280;2750;49.050;9.250;2023-03-01T16:25:49;99015.50;;;8.95;60.31
5455;BME280;2750;49.050;9.250;2023-03-01T16:30:52;99012.50;;;8.82;60.22
5455;BME280;2750;49.050;9.250;2023-03-01T16:35:53;99012.91;;;8.47;61.42
5455;BME280;2750;49.050;9.250;2023-03-01T16:40:55;99007.69;;;8.22;62.21
5455;BME280;2750;49.050;9.250;2023-03-01T16:45:58;99009.38;;;8.23;62.37
5455;BME280;2750;49.050;9.250;2023-03-01T16:51:00;99014.50;;;7.98;62.74
5455;BME280;2750;49.050;9.250;2023-03-01T16:56:04;99014.41;;;8.01;62.95
5455;BME280;2750;49.050;9.250;2023-03-01T17:01:09;99011.03;;;7.99;62.41
5455;BME280;2750;49.050;9.250;2023-03-01T17:06:13;99005.47;;;7.85;62.47
5455;BME280;2750;49.050;9.250;2023-03-01T17:11:17;99015.47;;;7.96;62.41
5455;BME280;2750;49.050;9.250;2023-03-01T17:16:21;99022.47;;;7.92;62.85
5455;BME280;2750;49.050;9.250;2023-03-01T17:21:22;99039.81;;;7.89;62.76
5455;BME280;2750;49.050;9.250;2023-03-01T17:26:24;99044.84;;;8.46;61.33
5455;BME280;2750;49.050;9.250;2023-03-01T17:31:30;99050.38;;;8.60;61.73
5455;BME280;2750;49.050;9.250;2023-03-01T17:36:32;99062.16;;;8.69;60.70
5455;BME280;2750;49.050;9.250;2023-03-01T17:41:43;99067.38;;;8.67;61.28
5455;BME280;2750;49.050;9.250;2023-03-01T17:46:46;99061.97;;;8.22;62.00
5455;BME280;2750;49.050;9.250;2023-03-01T17:51:47;99068.72;;;8.00;62.47
5455;BME280;2750;49.050;9.250;2023-03-01T17:56:49;99074.25;;;7.60;62.93
5455;BME280;2750;49.050;9.250;2023-03-01T18:01:52;99071.44;;;7.67;63.46
5455;BME280;2750;49.050;9.250;2023-03-01T18:06:53;99070.44;;;7.44;63.46
5455;BME280;2750;49.050;9.250;2023-03-01T18:11:55;99071.72;;;7.29;63.48
5455;BME280;2750;49.050;9.250;2023-03-01T18:16:59;99078.72;;;7.26;64.72
5455;BME280;2750;49.050;9.250;2023-03-01T18:22:01;99060.44;;;7.02;65.25
5455;BME280;2750;49.050;9.250;2023-03-01T18:27:03;99069.44;;;7.20;65.75
5455;BME280;2750;49.050;9.250;2023-03-01T18:32:06;99073.94;;;7.41;64.20
5455;BME280;2750;49.050;9.250;2023-03-01T18:37:07;99064.69;;;7.05;65.92
5455;BME280;2750;49.050;9.250;2023-03-01T18:42:09;99063.13;;;6.35;66.88
5455;BME280;2750;49.050;9.250;2023-03-01T18:47:12;99057.78;;;6.42;66.89
5455;BME280;2750;49.050;9.250;2023-03-01T18:52:13;99063.44;;;6.21;67.02
5455;BME280;2750;49.050;9.250;2023-03-01T18:57:15;99065.16;;;5.85;68.18
5455;BME280;2750;49.050;9.250;2023-03-01T19:02:20;99055.69;;;5.87;69.07
5455;BME280;2750;49.050;9.250;2023-03-01T19:07:21;99058.31;;;5.46;69.81
5455;BME280;2750;49.050;9.250;2023-03-01T19:12:23;99052.16;;;5.53;69.66
5455;BME280;2750;49.050;9.250;2023-03-01T19:17:28;99046.22;;;5.89;69.23
5455;BME280;2750;49.050;9.250;2023-03-01T19:22:30;99050.53;;;5.87;69.59
5455;BME280;2750;49.050;9.250;2023-03-01T19:27:32;99049.00;;;6.15;69.52
5455;BME280;2750;49.050;9.250;2023-03-01T19:32:36;99041.56;;;6.05;69.41
5455;BME280;2750;49.050;9.250;2023-03-01T19:37:37;99039.38;;;6.22;69.72
5455;BME280;2750;49.050;9.250;2023-03-01T19:42:39;99045.94;;;6.00;70.10
5455;BME280;2750;49.050;9.250;2023-03-01T19:47:45;99049.78;;;6.19;69.54
5455;BME280;2750;49.050;9.250;2023-03-01T19:52:47;99046.50;;;6.12;69.90
5455;BME280;2750;49.050;9.250;2023-03-01T19:57:48;99052.47;;;6.14;70.01
5455;BME280;2750;49.050;9.250;2023-03-01T20:02:51;99059.00;;;5.92;71.17
5455;BME280;2750;49.050;9.250;2023-03-01T20:07:53;99050.75;;;5.78;71.54
5455;BME280;2750;49.050;9.250;2023-03-01T20:12:56;99048.56;;;5.60;71.79
5455;BME280;2750;49.050;9.250;2023-03-01T20:17:59;99053.31;;;5.40;72.70
5455;BME280;2750;49.050;9.250;2023-03-01T20:23:01;99052.16;;;5.53;72.73
5455;BME280;2750;49.050;9.250;2023-03-01T20:28:02;99053.53;;;5.67;72.03
5455;BME280;2750;49.050;9.250;2023-03-01T20:33:05;99056.59;;;5.83;71.39
5455;BME280;2750;49.050;9.250;2023-03-01T20:38:07;99055.97;;;5.35;72.67
5455;BME280;2750;49.050;9.250;2023-03-01T20:43:09;99055.28;;;5.28;73.67
5455;BME280;2750;49.050;9.250;2023-03-01T20:48:12;99058.94;;;4.72;75.49
5455;BME280;2750;49.050;9.250;2023-03-01T20:53:14;99048.06;;;4.60;76.24
5455;BME280;2750;49.050;9.250;2023-03-01T20:58:15;99056.94;;;4.42;77.11
5455;BME280;2750;49.050;9.250;2023-03-01T21:03:18;99036.38;;;4.42;77.07
5455;BME280;2750;49.050;9.250;2023-03-01T21:08:20;99037.13;;;4.49;77.03
5455;BME280;2750;49.050;9.250;2023-03-01T21:13:22;99043.91;;;4.53;76.83
5455;BME280;2750;49.050;9.250;2023-03-01T21:18:25;99038.53;;;4.65;76.51
5455;BME280;2750;49.050;9.250;2023-03-01T21:23:32;99027.31;;;4.70;75.76
5455;BME280;2750;49.050;9.250;2023-03-01T21:28:34;99021.97;;;4.33;77.58
5455;BME280;2750;49.050;9.250;2023-03-01T21:33:39;99014.31;;;4.32;77.13
5455;BME280;2750;49.050;9.250;2023-03-01T21:38:42;99010.19;;;4.23;77.49
5455;BME280;2750;49.050;9.250;2023-03-01T21:43:46;99011.13;;;4.19;78.07
5455;BME280;2750;49.050;9.250;2023-03-01T21:48:50;99011.63;;;4.40;77.81
5455;BME280;2750;49.050;9.250;2023-03-01T21:53:54;99023.16;;;4.14;77.83
5455;BME280;2750;49.050;9.250;2023-03-01T21:58:56;99003.00;;;3.93;79.33
5455;BME280;2750;49.050;9.250;2023-03-01T22:04:00;99004.91;;;3.82;79.42
5455;BME280;2750;49.050;9.250;2023-03-01T22:09:04;99006.69;;;3.78;79.82
5455;BME280;2750;49.050;9.250;2023-03-01T22:14:08;99002.53;;;3.70;79.99
5455;BME280;2750;49.050;9.250;2023-03-01T22:19:13;99000.81;;;3.69;80.29
5455;BME280;2750;49.050;9.250;2023-03-01T22:24:16;98999.28;;;3.57;80.58
5455;BME280;2750;49.050;9.250;2023-03-01T22:29:20;99005.97;;;3.69;80.61
5455;BME280;2750;49.050;9.250;2023-03-01T22:34:24;99000.88;;;3.66;80.54
5455;BME280;2750;49.050;9.250;2023-03-01T22:39:25;99005.16;;;3.65;80.51
5455;BME280;2750;49.050;9.250;2023-03-01T22:44:27;99009.53;;;3.59;81.18
5455;BME280;2750;49.050;9.250;2023-03-01T22:49:29;99016.31;;;3.63;80.83
5455;BME280;2750;49.050;9.250;2023-03-01T22:54:31;99015.47;;;3.64;80.83
5455;BME280;2750;49.050;9.250;2023-03-01T22:59:32;99009.50;;;3.62;80.81
5455;BME280;2750;49.050;9.250;2023-03-01T23:04:35;99013.88;;;3.55;80.80
5455;BME280;2750;49.050;9.250;2023-03-01T23:09:37;99009.94;;;3.31;82.07
5455;BME280;2750;49.050;9.250;2023-03-01T23:14:38;99003.97;;;3.31;82.45
5455;BME280;2750;49.050;9.250;2023-03-01T23:19:42;98999.81;;;3.22;82.46
5455;BME280;2750;49.050;9.250;2023-03-01T23:24:43;99004.81;;;3.30;82.88
5455;BME280;2750;49.050;9.250;2023-03-01T23:29:45;99007.50;;;3.22;82.72
5455;BME280;2750;49.050;9.250;2023-03-01T23:34:48;99008.28;;;3.26;82.45
5455;BME280;2750;49.050;9.250;2023-03-01T23:39:49;99007.63;;;3.13;82.82
5455;BME280;2750;49.050;9.250;2023-03-01T23:44:51;99008.38;;;3.21;82.97
5455;BME280;2750;49.050;9.250;2023-03-01T23:49:54;98997.44;;;3.07;83.00
5455;BME280;2750;49.050;9.250;2023-03-01T23:54:56;99005.81;;;3.20;83.13
5455;BME280;2750;49.050;9.250;2023-03-01T23:59:58;99010.97;;;3.18;83.08
